createdAt,value
2018-12-24T00:03:03.475Z,85.23
2018-12-24T00:05:45.640Z,97.20
2018-12-24T00:07:54.900Z,96.47
2018-12-24T00:10:35.230Z,97.77
2018-12-24T00:13:30.498Z,108.10
2018-12-24T00:15:20.310Z,111.70
2018-12-24T00:17:27.003Z,112.83
2018-12-24T00:19:35.463Z,111.93
2018-12-24T00:21:43.169Z,111.17
2018-12-24T00:23:50.830Z,115.43
2018-12-24T00:25:59.457Z,116.73
2018-12-24T00:28:07.004Z,113.23
2018-12-24T00:30:14.741Z,113.40
2018-12-24T00:32:22.557Z,116.83
2018-12-24T00:34:30.244Z,115.33
2018-12-24T00:36:38.160Z,116.47
2018-12-24T00:38:46.091Z,115.57
2018-12-24T00:40:54.359Z,116.33
2018-12-24T00:43:01.928Z,116.57
2018-12-24T00:45:09.543Z,120.20
2018-12-24T00:47:17.378Z,111.30
2018-12-24T00:49:25.017Z,106.37
2018-12-24T00:51:33.263Z,106.30
2018-12-24T00:53:40.926Z,107.87
2018-12-24T00:55:48.628Z,101.13
2018-12-24T00:57:56.366Z,102.57
2018-12-24T01:00:04.004Z,98.37
2018-12-24T01:02:11.494Z,96.50
2018-12-24T01:04:19.002Z,102.03
2018-12-24T01:06:26.569Z,99.10
2018-12-24T01:08:34.932Z,105.40
2018-12-24T01:10:43.619Z,109.60
2018-12-24T01:12:51.134Z,110.67
2018-12-24T01:14:58.758Z,113.20
2018-12-24T01:17:06.572Z,115.63
2018-12-24T01:19:14.303Z,121.10
2018-12-24T01:21:21.889Z,115.83
2018-12-24T01:23:29.884Z,118.70
2018-12-24T01:25:37.041Z,117.70
2018-12-24T01:27:44.597Z,119.70
2018-12-24T01:29:52.402Z,120.67
2018-12-24T01:32:00.047Z,120.00
2018-12-24T01:34:08.543Z,119.90
2018-12-24T01:36:16.887Z,123.77
2018-12-24T01:38:24.637Z,124.50
2018-12-24T01:40:32.317Z,126.83
2018-12-24T01:42:39.954Z,119.87
2018-12-24T01:44:47.979Z,122.10
2018-12-24T01:46:56.022Z,118.10
2018-12-24T01:49:04.233Z,118.30
2018-12-24T01:51:11.980Z,122.60
2018-12-24T01:53:19.708Z,119.13
2018-12-24T01:55:27.255Z,111.87
2018-12-24T01:57:34.775Z,112.23
2018-12-24T02:00:49.593Z,114.10
2018-12-24T02:02:56.733Z,105.33
2018-12-24T02:05:04.051Z,103.57
2018-12-24T02:07:11.525Z,104.80
2018-12-24T02:09:19.444Z,99.23
2018-12-24T02:11:26.671Z,103.70
2018-12-24T02:13:33.705Z,106.80
2018-12-24T02:15:40.816Z,111.53
2018-12-24T02:17:47.929Z,112.63
2018-12-24T02:19:55.097Z,117.73
2018-12-24T02:22:02.877Z,115.63
2018-12-24T02:24:10.093Z,120.40
2018-12-24T02:26:18.289Z,120.10
2018-12-24T02:28:25.408Z,122.63
2018-12-24T02:30:32.662Z,122.40
2018-12-24T02:32:39.870Z,121.20
2018-12-24T02:34:47.354Z,128.40
2018-12-24T02:36:54.780Z,123.33
2018-12-24T02:39:02.484Z,127.77
2018-12-24T02:41:09.636Z,126.07
2018-12-24T02:43:16.991Z,123.53
2018-12-24T02:45:24.562Z,121.87
2018-12-24T02:47:31.694Z,129.77
2018-12-24T02:49:38.946Z,127.20
2018-12-24T02:51:46.303Z,121.77
2018-12-24T02:53:55.129Z,122.50
2018-12-24T02:56:02.237Z,119.33
2018-12-24T02:58:10.299Z,109.30
2018-12-24T03:00:17.952Z,109.17
2018-12-24T03:02:25.655Z,99.10
2018-12-24T03:05:17.563Z,91.60
2018-12-24T03:07:16.452Z,89.13
2018-12-24T03:09:46.767Z,90.23
2018-12-24T03:11:58.185Z,80.27
2018-12-24T03:14:20.963Z,106.07
2018-12-24T03:16:28.498Z,99.10
2018-12-24T03:19:29.559Z,100.57
2018-12-24T03:21:36.938Z,97.80
2018-12-24T03:23:57.015Z,98.00
2018-12-24T03:26:10.967Z,104.50
2018-12-24T03:28:35.545Z,98.40
2018-12-24T03:31:00.103Z,89.03
2018-12-24T03:33:07.948Z,89.93
2018-12-24T03:35:15.264Z,96.33
2018-12-24T03:37:34.331Z,93.13
2018-12-24T03:39:42.211Z,94.03
2018-12-24T03:41:49.438Z,92.80
2018-12-24T03:43:57.009Z,91.30
2018-12-24T03:46:13.473Z,92.20
2018-12-24T03:50:46.089Z,97.10
2018-12-24T03:52:54.281Z,99.47
2018-12-24T03:55:01.648Z,95.47
2018-12-24T03:57:08.905Z,90.90
2018-12-24T03:59:29.140Z,93.43
2018-12-24T04:01:37.286Z,90.97
2018-12-24T04:03:45.731Z,89.90
2018-12-24T04:06:04.649Z,86.20
2018-12-24T04:08:13.173Z,83.30
2018-12-24T04:10:53.830Z,81.80
2018-12-24T04:13:10.982Z,86.33
2018-12-24T04:15:18.991Z,87.57
2018-12-24T04:17:26.819Z,82.60
2018-12-24T04:19:34.190Z,84.77
2018-12-24T04:21:41.478Z,85.00
2018-12-24T04:23:48.848Z,83.37
2018-12-24T04:25:55.934Z,72.30
2018-12-24T04:28:03.203Z,77.20
2018-12-24T04:30:11.158Z,69.83
2018-12-24T04:32:18.443Z,75.50
2018-12-24T04:34:25.739Z,70.70
2018-12-24T04:36:33.176Z,82.53
2018-12-24T04:38:41.567Z,71.37
2018-12-24T04:40:49.193Z,81.23
2018-12-24T04:42:56.536Z,79.83
2018-12-24T04:45:04.285Z,75.10
2018-12-24T04:47:12.210Z,75.50
2018-12-24T04:49:21.018Z,78.77
2018-12-24T04:51:29.175Z,82.43
2018-12-24T04:53:36.904Z,83.30
2018-12-24T04:55:44.734Z,81.10
2018-12-24T04:57:52.610Z,81.40
2018-12-24T05:00:00.406Z,81.43
2018-12-24T05:02:08.223Z,82.80
2018-12-24T05:04:15.483Z,69.37
2018-12-24T05:06:23.700Z,65.00
2018-12-24T05:08:30.806Z,70.20
2018-12-24T05:10:38.811Z,63.73
2018-12-24T05:12:45.989Z,62.97
2018-12-24T05:14:53.463Z,61.03
2018-12-24T05:17:00.690Z,63.40
2018-12-24T05:19:08.023Z,73.00
2018-12-24T05:21:15.402Z,67.77
2018-12-24T05:23:22.634Z,69.60
2018-12-24T05:25:29.832Z,74.43
2018-12-24T05:27:37.611Z,76.23
2018-12-24T05:29:44.774Z,73.10
2018-12-24T05:31:52.960Z,73.60
2018-12-24T05:34:00.052Z,82.20
2018-12-24T05:36:07.369Z,75.90
2018-12-24T05:38:15.242Z,70.97
2018-12-24T05:40:22.494Z,71.93
2018-12-24T05:42:29.809Z,72.30
2018-12-24T05:44:38.614Z,75.43
2018-12-24T05:46:45.733Z,74.83
2018-12-24T05:48:53.057Z,72.57
2018-12-24T05:51:01.133Z,68.87
2018-12-24T05:53:08.320Z,73.97
2018-12-24T05:57:27.896Z,77.67
2018-12-24T05:59:35.415Z,73.33
2018-12-24T06:01:42.656Z,74.27
2018-12-24T06:06:04.014Z,85.13
2018-12-24T06:08:11.081Z,96.10
2018-12-24T06:10:18.727Z,79.10
2018-12-24T06:12:25.724Z,78.10
2018-12-24T06:14:32.417Z,86.43
2018-12-24T06:16:39.738Z,72.03
2018-12-24T06:18:47.087Z,75.13
2018-12-24T06:20:54.326Z,71.30
2018-12-24T06:23:01.619Z,65.70
2018-12-24T06:25:09.539Z,72.90
2018-12-24T06:27:16.830Z,73.73
2018-12-24T06:29:24.412Z,88.77
2018-12-24T06:31:32.453Z,86.43
2018-12-24T06:33:39.430Z,80.93
2018-12-24T06:35:46.703Z,84.77
2018-12-24T06:37:54.713Z,90.50
2018-12-24T06:40:02.307Z,96.00
2018-12-24T06:42:09.484Z,88.37
2018-12-24T06:44:16.466Z,89.37
2018-12-24T06:46:23.719Z,86.17
2018-12-24T06:48:30.919Z,90.20
2018-12-24T06:50:38.704Z,88.13
2018-12-24T06:52:45.840Z,93.50
2018-12-24T06:54:53.072Z,93.87
2018-12-24T06:57:01.437Z,95.43
2018-12-24T06:59:08.405Z,101.97
2018-12-24T07:01:16.247Z,94.37
2018-12-24T07:03:23.443Z,96.40
2018-12-24T07:05:30.743Z,98.40
2018-12-24T07:07:38.129Z,94.83
2018-12-24T07:09:46.031Z,89.17
2018-12-24T07:11:53.285Z,96.90
2018-12-24T07:14:00.619Z,107.40
2018-12-24T07:16:07.911Z,93.23
2018-12-24T07:18:15.301Z,89.40
2018-12-24T07:20:23.062Z,84.80
2018-12-24T07:22:30.173Z,83.50
2018-12-24T07:24:37.304Z,78.70
2018-12-24T07:26:45.040Z,73.83
2018-12-24T07:28:58.982Z,70.40
2018-12-24T07:31:02.124Z,75.90
2018-12-24T07:33:09.598Z,84.90
2018-12-24T07:35:16.814Z,92.23
2018-12-24T07:37:23.944Z,95.47
2018-12-24T07:39:31.760Z,87.93
2018-12-24T07:41:39.187Z,96.43
2018-12-24T07:43:46.212Z,95.97
2018-12-24T07:45:53.392Z,103.60
2018-12-24T07:48:00.611Z,107.20
2018-12-24T07:50:07.730Z,105.70
2018-12-24T07:52:14.904Z,108.13
2018-12-24T07:54:22.254Z,111.57
2018-12-24T07:56:30.734Z,111.97
2018-12-24T07:58:39.483Z,113.90
2018-12-24T08:00:46.800Z,112.20
2018-12-24T08:02:53.957Z,111.57
2018-12-24T08:05:01.210Z,111.80
2018-12-24T08:07:08.927Z,109.10
2018-12-24T08:09:16.318Z,110.40
2018-12-24T08:11:24.022Z,115.07
2018-12-24T08:13:31.168Z,117.53
2018-12-24T08:15:38.867Z,113.67
2018-12-24T08:17:45.966Z,109.13
2018-12-24T08:19:54.246Z,101.90
2018-12-24T08:22:01.418Z,106.50
2018-12-24T08:24:08.682Z,105.00
2018-12-24T08:26:15.959Z,97.37
2018-12-24T08:28:22.984Z,94.73
2018-12-24T08:30:30.162Z,83.63
2018-12-24T08:32:37.372Z,84.63
2018-12-24T08:34:45.432Z,84.43
2018-12-24T08:36:52.654Z,82.40
2018-12-24T08:39:00.243Z,75.80
2018-12-24T08:41:07.577Z,76.00
2018-12-24T08:43:14.912Z,74.80
2018-12-24T08:45:22.279Z,74.87
2018-12-24T08:47:29.467Z,81.10
2018-12-24T08:49:36.609Z,89.20
2018-12-24T08:51:43.727Z,93.80
2018-12-24T08:53:50.929Z,100.13
2018-12-24T08:55:58.296Z,101.80
2018-12-24T08:58:05.344Z,99.33
2018-12-24T09:00:14.051Z,99.47
2018-12-24T09:02:21.354Z,104.77
2018-12-24T09:04:28.678Z,101.27
2018-12-24T09:06:36.193Z,106.30
2018-12-24T09:08:43.241Z,107.13
2018-12-24T09:10:50.541Z,109.20
2018-12-24T09:12:57.856Z,108.67
2018-12-24T09:15:05.775Z,106.10
2018-12-24T09:17:13.507Z,109.77
2018-12-24T09:19:20.685Z,109.80
2018-12-24T09:21:28.156Z,114.47
2018-12-24T09:23:35.498Z,117.13
2018-12-24T09:25:42.887Z,115.93
2018-12-24T09:27:49.735Z,117.30
2018-12-24T09:29:56.962Z,118.73
2018-12-24T09:32:04.228Z,113.43
2018-12-24T09:34:11.600Z,110.70
2018-12-24T09:36:18.937Z,106.03
2018-12-24T09:38:25.953Z,97.80
2018-12-24T09:40:33.050Z,88.90
2018-12-24T09:42:40.167Z,88.03
2018-12-24T09:44:47.529Z,83.93
2018-12-24T09:46:54.471Z,79.97
2018-12-24T09:49:02.278Z,81.17
2018-12-24T09:51:10.264Z,80.63
2018-12-24T09:53:17.451Z,77.60
2018-12-24T09:55:24.712Z,90.47
2018-12-24T09:57:32.479Z,102.23
2018-12-24T09:59:40.267Z,101.67
2018-12-24T10:01:47.306Z,105.50
2018-12-24T10:04:02.807Z,101.90
2018-12-24T10:06:13.442Z,104.43
2018-12-24T10:08:22.808Z,106.63
2018-12-24T10:10:29.992Z,109.17
2018-12-24T10:12:37.146Z,108.73
2018-12-24T10:14:45.166Z,107.73
2018-12-24T10:16:52.254Z,107.23
2018-12-24T10:19:00.314Z,110.33
2018-12-24T10:21:08.116Z,106.43
2018-12-24T10:23:15.181Z,109.03
2018-12-24T10:25:22.966Z,101.97
2018-12-24T10:27:30.199Z,99.80
2018-12-24T10:29:37.384Z,95.13
2018-12-24T10:31:45.269Z,87.53
2018-12-24T10:33:53.244Z,84.13
2018-12-24T10:36:00.261Z,78.30
2018-12-24T10:38:08.117Z,79.33
2018-12-24T10:40:19.527Z,107.73
2018-12-24T10:42:27.197Z,112.00
2018-12-24T10:44:34.294Z,108.20
2018-12-24T10:46:41.408Z,113.90
2018-12-24T10:48:49.238Z,111.93
2018-12-24T10:50:56.954Z,109.77
2018-12-24T10:53:04.603Z,112.17
2018-12-24T10:55:12.311Z,113.93
2018-12-24T10:57:19.337Z,110.97
2018-12-24T10:59:26.579Z,109.33
2018-12-24T11:01:33.937Z,117.97
2018-12-24T11:03:41.855Z,112.17
2018-12-24T11:05:49.122Z,111.90
2018-12-24T11:07:56.419Z,100.83
2018-12-24T11:10:03.496Z,94.67
2018-12-24T11:12:11.726Z,88.53
2018-12-24T11:14:19.063Z,85.20
2018-12-24T11:16:26.367Z,85.40
2018-12-24T11:18:34.412Z,83.30
2018-12-24T11:20:41.912Z,81.17
2018-12-24T11:22:48.818Z,81.37
2018-12-24T11:24:56.143Z,103.10
2018-12-24T11:27:03.385Z,96.70
2018-12-24T11:29:10.457Z,110.07
2018-12-24T11:31:18.204Z,101.77
2018-12-24T11:33:25.227Z,106.43
2018-12-24T11:35:32.441Z,108.40
2018-12-24T11:37:39.643Z,106.57
2018-12-24T11:39:47.125Z,117.67
2018-12-24T11:41:54.185Z,116.23
2018-12-24T11:44:01.326Z,116.27
2018-12-24T11:46:09.139Z,114.10
2018-12-24T11:48:16.365Z,116.83
2018-12-24T11:50:23.355Z,116.67
2018-12-24T11:52:30.644Z,113.77
2018-12-24T11:54:38.606Z,113.27
2018-12-24T11:56:45.926Z,118.30
2018-12-24T11:58:54.098Z,112.50
2018-12-24T12:01:01.226Z,104.90
2018-12-24T12:03:09.309Z,102.03
2018-12-24T12:05:16.293Z,93.63
2018-12-24T12:07:23.406Z,92.37
2018-12-24T12:09:30.834Z,90.27
2018-12-24T12:11:38.369Z,85.33
2018-12-24T12:13:45.381Z,85.97
2018-12-24T12:15:52.763Z,80.80
2018-12-24T12:17:59.964Z,80.97
2018-12-24T12:20:07.274Z,76.37
2018-12-24T12:22:14.655Z,77.37
2018-12-24T12:24:21.768Z,75.60
2018-12-24T12:26:30.342Z,76.50
2018-12-24T12:28:37.667Z,71.00
2018-12-24T12:30:44.784Z,74.13
2018-12-24T12:32:51.825Z,75.47
2018-12-24T12:34:59.163Z,72.20
2018-12-24T12:37:06.855Z,72.00
2018-12-24T12:39:13.934Z,72.37
2018-12-24T12:41:21.475Z,73.07
2018-12-24T12:43:28.520Z,72.87
2018-12-24T12:45:35.811Z,72.03
2018-12-24T12:47:43.197Z,73.77
2018-12-24T12:49:50.227Z,71.83
2018-12-24T12:51:57.414Z,67.20
2018-12-24T12:54:05.171Z,69.23
2018-12-24T12:56:12.288Z,66.27
2018-12-24T12:58:19.296Z,64.93
2018-12-24T13:00:27.046Z,67.20
2018-12-24T13:02:34.333Z,65.07
2018-12-24T13:04:41.645Z,73.67
2018-12-24T13:06:48.681Z,66.17
2018-12-24T13:08:55.989Z,69.70
2018-12-24T13:11:03.333Z,70.97
2018-12-24T13:13:11.010Z,74.63
2018-12-24T13:15:18.365Z,69.03
2018-12-24T13:17:25.443Z,67.27
2018-12-24T13:19:33.247Z,66.37
2018-12-24T13:21:41.968Z,65.33
2018-12-24T13:23:49.502Z,63.70
2018-12-24T13:26:16.187Z,64.03
2018-12-24T13:28:24.080Z,103.33
2018-12-24T13:30:31.414Z,88.93
2018-12-24T13:32:39.103Z,101.47
2018-12-24T13:34:46.127Z,104.90
2018-12-24T13:36:53.287Z,110.10
2018-12-24T13:39:00.505Z,110.77
2018-12-24T13:41:08.503Z,108.77
2018-12-24T13:43:15.824Z,88.97
2018-12-24T13:45:23.173Z,86.93
2018-12-24T13:47:30.614Z,84.73
2018-12-24T13:49:37.644Z,74.87
2018-12-24T13:51:45.004Z,70.40
2018-12-24T13:53:52.251Z,71.57
2018-12-24T13:55:59.865Z,73.07
2018-12-24T13:58:07.162Z,70.00
2018-12-24T14:00:15.315Z,67.53
2018-12-24T14:02:22.611Z,72.97
2018-12-24T14:04:30.724Z,64.70
2018-12-24T14:06:38.766Z,95.13
2018-12-24T14:08:46.018Z,102.87
2018-12-24T14:10:53.453Z,102.87
2018-12-24T14:13:01.387Z,111.43
2018-12-24T14:15:09.122Z,103.60
2018-12-24T14:17:17.123Z,108.27
2018-12-24T14:19:24.371Z,115.73
2018-12-24T14:21:31.439Z,119.07
2018-12-24T14:23:39.271Z,92.83
2018-12-24T14:25:46.455Z,87.00
2018-12-24T14:27:53.668Z,78.87
2018-12-24T14:30:01.559Z,77.07
2018-12-24T14:32:09.129Z,74.50
2018-12-24T14:34:21.433Z,71.83
2018-12-24T14:36:28.835Z,73.50
2018-12-24T14:38:36.514Z,69.77
2018-12-24T14:40:44.135Z,65.63
2018-12-24T14:42:51.258Z,67.63
2018-12-24T14:44:58.840Z,92.63
2018-12-24T14:47:06.677Z,96.93
2018-12-24T14:49:14.069Z,95.80
2018-12-24T14:51:21.303Z,99.20
2018-12-24T14:53:28.661Z,102.90
2018-12-24T14:55:35.797Z,101.23
2018-12-24T14:57:43.060Z,97.90
2018-12-24T14:59:50.472Z,105.10
2018-12-24T15:01:57.787Z,108.77
2018-12-24T15:04:04.978Z,110.40
2018-12-24T15:06:12.393Z,108.77
2018-12-24T15:08:19.797Z,95.63
2018-12-24T15:10:27.098Z,103.50
2018-12-24T15:12:35.014Z,107.13
2018-12-24T15:14:43.857Z,92.07
2018-12-24T15:16:52.830Z,90.10
2018-12-24T15:19:01.533Z,84.47
2018-12-24T15:21:08.695Z,79.37
2018-12-24T15:23:15.925Z,75.90
2018-12-24T15:25:23.431Z,76.03
2018-12-24T15:27:30.956Z,72.77
2018-12-24T15:29:38.241Z,78.83
2018-12-24T15:31:45.576Z,87.53
2018-12-24T15:33:52.657Z,92.37
2018-12-24T15:36:01.175Z,87.83
2018-12-24T15:38:15.586Z,88.57
2018-12-24T15:40:22.848Z,85.03
2018-12-24T15:42:32.108Z,85.03
2018-12-24T15:44:39.760Z,84.73
2018-12-24T15:46:47.245Z,79.43
2018-12-24T15:49:30.783Z,98.00
2018-12-24T15:52:07.470Z,92.13
2018-12-24T15:54:15.107Z,93.17
2018-12-24T15:56:22.158Z,86.07
2018-12-24T15:58:29.520Z,94.67
2018-12-24T16:00:37.159Z,85.80
2018-12-24T16:02:45.990Z,99.67
2018-12-24T16:04:53.497Z,95.90
2018-12-24T16:07:02.063Z,101.07
2018-12-24T16:09:10.753Z,92.43
2018-12-24T16:11:18.159Z,99.73
2018-12-24T16:13:25.531Z,105.23
2018-12-24T16:15:51.980Z,95.03
2018-12-24T16:18:00.205Z,100.90
2018-12-24T16:20:08.119Z,90.23
2018-12-24T16:22:15.924Z,86.10
2018-12-24T16:25:27.721Z,86.60
2018-12-24T16:27:15.592Z,76.87
2018-12-24T16:29:23.737Z,82.23
2018-12-24T16:31:31.880Z,73.63
2018-12-24T16:33:38.969Z,92.50
2018-12-24T16:35:46.929Z,70.90
2018-12-24T16:37:54.143Z,66.50
2018-12-24T16:40:05.239Z,69.57
2018-12-24T16:42:12.570Z,85.53
2018-12-24T16:44:20.320Z,80.33
2018-12-24T16:46:27.483Z,79.60
2018-12-24T16:48:34.787Z,86.10
2018-12-24T16:50:54.056Z,83.47
2018-12-24T16:53:01.122Z,92.70
2018-12-24T16:55:09.141Z,96.83
2018-12-24T16:57:16.499Z,95.50
2018-12-24T16:59:24.263Z,101.53
2018-12-24T17:01:31.683Z,101.70
2018-12-24T17:03:39.333Z,101.87
2018-12-24T17:05:48.566Z,98.97
2018-12-24T17:08:10.987Z,90.43
2018-12-24T17:10:31.518Z,87.90
2018-12-24T17:12:55.569Z,92.53
2018-12-24T17:15:23.079Z,89.43
2018-12-24T17:17:30.849Z,81.50
2018-12-24T17:19:38.453Z,84.07
2018-12-24T17:21:46.070Z,81.30
2018-12-24T17:23:53.502Z,72.87
2018-12-24T17:26:01.026Z,94.60
2018-12-24T17:28:09.252Z,96.33
2018-12-24T17:30:17.188Z,94.13
2018-12-24T17:32:24.715Z,90.47
2018-12-24T17:34:32.106Z,93.03
2018-12-24T17:36:39.374Z,94.07
2018-12-24T17:38:46.701Z,96.70
2018-12-24T17:40:53.910Z,97.70
2018-12-24T17:43:01.299Z,93.60
2018-12-24T17:45:08.906Z,98.23
2018-12-24T17:47:16.628Z,103.40
2018-12-24T17:49:24.168Z,102.40
2018-12-24T17:51:31.432Z,107.17
2018-12-24T17:53:39.544Z,108.33
2018-12-24T17:55:46.872Z,105.07
2018-12-24T17:57:54.322Z,105.43
2018-12-24T18:00:01.753Z,109.33
2018-12-24T18:02:09.164Z,109.47
2018-12-24T18:04:16.586Z,109.03
2018-12-24T18:06:23.535Z,108.70
2018-12-24T18:08:31.148Z,112.47
2018-12-24T18:10:38.373Z,112.00
2018-12-24T18:12:46.553Z,110.67
2018-12-24T18:14:54.049Z,117.33
2018-12-24T18:17:01.382Z,118.27
2018-12-24T18:19:08.735Z,113.53
2018-12-24T18:21:15.747Z,118.30
2018-12-24T18:23:22.937Z,113.90
2018-12-24T18:25:32.596Z,103.57
2018-12-24T18:27:40.049Z,112.10
2018-12-24T18:29:49.354Z,110.60
2018-12-24T18:32:04.890Z,108.30
2018-12-24T18:34:17.711Z,102.63
2018-12-24T18:36:33.724Z,111.87
2018-12-24T18:38:41.201Z,104.63
2018-12-24T18:40:48.491Z,111.03
2018-12-24T18:42:55.501Z,109.83
2018-12-24T18:45:02.836Z,103.00
2018-12-24T18:47:10.450Z,111.60
2018-12-24T18:49:17.976Z,109.10
2018-12-24T18:51:25.629Z,116.87
2018-12-24T18:53:33.635Z,117.63
2018-12-24T18:55:41.117Z,110.80
2018-12-24T18:57:48.094Z,116.87
2018-12-24T18:59:55.301Z,110.17
2018-12-24T19:02:03.476Z,107.40
2018-12-24T19:04:10.597Z,112.97
2018-12-24T19:06:17.753Z,126.70
2018-12-24T19:08:25.404Z,113.67
2018-12-24T19:10:33.179Z,127.97
2018-12-24T19:12:41.238Z,131.27
2018-12-24T19:14:48.517Z,115.93
2018-12-24T19:16:55.680Z,114.37
2018-12-24T19:19:04.116Z,128.43
2018-12-24T19:21:11.332Z,138.67
2018-12-24T19:23:19.073Z,141.13
2018-12-24T19:25:26.319Z,128.70
2018-12-24T19:27:33.400Z,133.07
2018-12-24T19:29:40.818Z,138.10
2018-12-24T19:31:47.972Z,139.33
2018-12-24T19:33:55.175Z,124.60
2018-12-24T19:36:02.487Z,128.63
2018-12-24T19:38:09.744Z,126.17
2018-12-24T19:40:17.396Z,128.77
2018-12-24T19:42:24.738Z,125.93
2018-12-24T19:44:32.817Z,126.67
2018-12-24T19:46:40.098Z,116.50
2018-12-24T19:48:48.436Z,110.10
2018-12-24T19:50:55.670Z,108.23
2018-12-24T19:53:03.077Z,98.17
2018-12-24T19:55:10.637Z,94.70
2018-12-24T19:57:17.949Z,91.87
2018-12-24T19:59:25.799Z,103.20
2018-12-24T20:01:33.578Z,85.37
2018-12-24T20:03:41.262Z,91.17
2018-12-24T20:05:49.683Z,103.90
2018-12-24T20:07:57.386Z,104.00
2018-12-24T20:10:05.446Z,103.47
2018-12-24T20:12:12.528Z,105.90
2018-12-24T20:14:21.146Z,111.03
2018-12-24T20:16:28.450Z,106.43
2018-12-24T20:18:35.686Z,124.63
2018-12-24T20:20:43.038Z,114.37
2018-12-24T20:22:50.157Z,116.10
2018-12-24T20:24:57.166Z,115.80
2018-12-24T20:27:05.014Z,120.03
2018-12-24T20:29:13.696Z,117.43
2018-12-24T20:31:22.422Z,116.67
2018-12-24T20:33:30.445Z,119.40
2018-12-24T20:35:39.098Z,117.30
2018-12-24T20:37:46.717Z,108.93
2018-12-24T20:39:54.306Z,113.83
2018-12-24T20:42:02.773Z,118.93
2018-12-24T20:44:10.591Z,121.23
2018-12-24T20:46:18.599Z,125.33
2018-12-24T20:48:25.936Z,124.10
2018-12-24T20:50:33.171Z,130.03
2018-12-24T20:52:40.363Z,125.73
2018-12-24T20:54:47.725Z,124.57
2018-12-24T20:56:56.393Z,131.77
2018-12-24T20:59:03.562Z,123.47
2018-12-24T21:01:11.610Z,120.00
2018-12-24T21:03:18.833Z,117.90
2018-12-24T21:05:26.555Z,112.97
2018-12-24T21:07:33.902Z,101.60
2018-12-24T21:09:41.140Z,109.63
2018-12-24T21:11:49.191Z,111.03
2018-12-24T21:13:56.550Z,98.40
2018-12-24T21:16:03.909Z,91.97
2018-12-24T21:18:15.037Z,76.97
2018-12-24T21:20:19.738Z,85.23
2018-12-24T21:22:26.429Z,93.87
2018-12-24T21:24:34.302Z,105.30
2018-12-24T21:26:41.035Z,106.57
2018-12-24T21:28:47.880Z,110.23
2018-12-24T21:30:55.476Z,111.67
2018-12-24T21:33:02.736Z,105.90
2018-12-24T21:35:10.232Z,114.83
2018-12-24T21:37:18.377Z,113.70
2018-12-24T21:39:26.467Z,114.63
2018-12-24T21:41:33.664Z,119.10
2018-12-24T21:43:40.959Z,113.70
2018-12-24T21:45:48.329Z,100.27
2018-12-24T21:47:55.550Z,99.53
2018-12-24T21:50:03.100Z,96.00
2018-12-24T21:52:10.416Z,94.33
2018-12-24T21:54:17.648Z,91.87
2018-12-24T21:56:26.054Z,88.97
2018-12-24T21:58:33.258Z,88.30
2018-12-24T22:00:41.734Z,89.43
2018-12-24T22:02:49.186Z,97.20
2018-12-24T22:04:56.434Z,103.43
2018-12-24T22:07:03.693Z,95.53
2018-12-24T22:09:11.307Z,96.70
2018-12-24T22:11:18.329Z,96.23
2018-12-24T22:13:26.359Z,98.80
2018-12-24T22:15:33.580Z,100.50
2018-12-24T22:17:41.060Z,102.53
2018-12-24T22:19:48.375Z,111.13
2018-12-24T22:21:55.447Z,105.97
2018-12-24T22:24:03.682Z,111.93
2018-12-24T22:26:11.617Z,108.93
2018-12-24T22:28:18.920Z,109.53
2018-12-24T22:30:26.281Z,97.20
2018-12-24T22:32:34.794Z,100.13
2018-12-24T22:34:42.027Z,87.37
2018-12-24T22:36:49.081Z,79.27
2018-12-24T22:38:56.349Z,79.63
2018-12-24T22:41:03.647Z,74.93
2018-12-24T22:43:10.953Z,86.40
2018-12-24T22:45:18.362Z,80.43
2018-12-24T22:47:25.502Z,77.07
2018-12-24T22:49:32.966Z,76.37
2018-12-24T22:51:40.439Z,81.90
2018-12-24T22:53:47.876Z,103.70
2018-12-24T22:55:55.608Z,95.90
2018-12-24T22:58:02.857Z,92.77
2018-12-24T23:00:14.112Z,114.63
2018-12-24T23:02:22.600Z,101.73
2018-12-24T23:04:30.912Z,93.30
2018-12-24T23:06:38.351Z,88.87
2018-12-24T23:08:45.683Z,90.10
2018-12-24T23:13:08.026Z,96.43
2018-12-24T23:15:15.229Z,90.10
2018-12-24T23:17:22.525Z,87.43
2018-12-24T23:19:30.038Z,76.67
2018-12-24T23:21:37.357Z,78.77
2018-12-24T23:23:44.389Z,85.60
2018-12-24T23:25:51.870Z,89.77
2018-12-24T23:27:59.147Z,89.90
2018-12-24T23:30:07.224Z,81.17
2018-12-24T23:32:14.360Z,89.20
2018-12-24T23:34:21.837Z,88.23
2018-12-24T23:36:29.260Z,79.50
2018-12-24T23:38:36.403Z,78.73
2018-12-24T23:40:44.245Z,83.43
2018-12-24T23:42:51.617Z,81.17
2018-12-24T23:44:59.519Z,86.90
2018-12-24T23:47:06.946Z,92.07
2018-12-24T23:49:14.222Z,85.97
2018-12-24T23:51:21.437Z,88.43
2018-12-24T23:53:28.728Z,102.57
2018-12-24T23:55:36.530Z,104.17
2018-12-24T23:57:43.904Z,108.40
2018-12-24T23:59:51.623Z,89.03
